sensor_id;sensor_type;location;lat;lon;timestamp;temperature;humidity
35635;DHT22;21757;43.610;1.440;2023-02-28T00:00:08;3.30;99.90
35635;DHT22;21757;43.610;1.440;2023-02-28T00:02:40;3.20;99.90
35635;DHT22;21757;43.610;1.440;2023-02-28T00:05:07;3.20;99.90
35635;DHT22;21757;43.610;1.440;2023-02-28T00:07:33;3.20;99.90
35635;DHT22;21757;43.610;1.440;2023-02-28T00:09:59;3.20;99.90
35635;DHT22;21757;43.610;1.440;2023-02-28T00:12:25;3.20;99.90
35635;DHT22;21757;43.610;1.440;2023-02-28T00:14:51;3.10;99.90
35635;DHT22;21757;43.610;1.440;2023-02-28T00:17:17;3.00;99.90
35635;DHT22;21757;43.610;1.440;2023-02-28T00:19:50;3.00;99.90
35635;DHT22;21757;43.610;1.440;2023-02-28T00:22:17;3.10;99.90
35635;DHT22;21757;43.610;1.440;2023-02-28T00:24:43;3.10;99.90
35635;DHT22;21757;43.610;1.440;2023-02-28T00:27:09;3.00;99.90
35635;DHT22;21757;43.610;1.440;2023-02-28T00:29:35;3.00;99.90
35635;DHT22;21757;43.610;1.440;2023-02-28T00:32:01;3.00;99.90
35635;DHT22;21757;43.610;1.440;2023-02-28T00:34:27;3.00;99.90
35635;DHT22;21757;43.610;1.440;2023-02-28T00:36:52;3.00;99.90
35635;DHT22;21757;43.610;1.440;2023-02-28T00:39:18;3.00;99.90
35635;DHT22;21757;43.610;1.440;2023-02-28T00:41:44;3.00;99.90
35635;DHT22;21757;43.610;1.440;2023-02-28T00:44:09;3.00;99.90
35635;DHT22;21757;43.610;1.440;2023-02-28T00:46:35;2.90;99.90
35635;DHT22;21757;43.610;1.440;2023-02-28T00:49:01;2.80;99.90
35635;DHT22;21757;43.610;1.440;2023-02-28T00:51:26;2.80;99.90
35635;DHT22;21757;43.610;1.440;2023-02-28T00:53:52;2.70;99.90
35635;DHT22;21757;43.610;1.440;2023-02-28T00:56:18;2.70;99.90
35635;DHT22;21757;43.610;1.440;2023-02-28T00:58:43;2.60;99.90
35635;DHT22;21757;43.610;1.440;2023-02-28T01:01:09;2.70;99.90
35635;DHT22;21757;43.610;1.440;2023-02-28T01:03:35;2.70;99.90
35635;DHT22;21757;43.610;1.440;2023-02-28T01:06:00;2.70;99.90
35635;DHT22;21757;43.610;1.440;2023-02-28T01:08:26;2.80;99.90
35635;DHT22;21757;43.610;1.440;2023-02-28T01:10:52;2.80;99.90
35635;DHT22;21757;43.610;1.440;2023-02-28T01:13:18;2.80;99.90
35635;DHT22;21757;43.610;1.440;2023-02-28T01:15:50;2.80;99.90
35635;DHT22;21757;43.610;1.440;2023-02-28T01:18:19;2.80;99.90
35635;DHT22;21757;43.610;1.440;2023-02-28T01:20:44;2.70;99.90
35635;DHT22;21757;43.610;1.440;2023-02-28T01:23:11;2.80;99.90
35635;DHT22;21757;43.610;1.440;2023-02-28T01:25:38;2.80;99.90
35635;DHT22;21757;43.610;1.440;2023-02-28T01:28:04;2.80;99.90
35635;DHT22;21757;43.610;1.440;2023-02-28T01:30:31;2.80;99.90
35635;DHT22;21757;43.610;1.440;2023-02-28T01:32:57;2.80;99.90
35635;DHT22;21757;43.610;1.440;2023-02-28T01:35:22;2.80;99.90
35635;DHT22;21757;43.610;1.440;2023-02-28T01:37:48;2.80;99.90
35635;DHT22;21757;43.610;1.440;2023-02-28T01:40:14;2.80;99.90
35635;DHT22;21757;43.610;1.440;2023-02-28T01:42:40;2.80;99.90
35635;DHT22;21757;43.610;1.440;2023-02-28T01:45:31;2.80;99.90
35635;DHT22;21757;43.610;1.440;2023-02-28T01:48:07;2.80;99.90
35635;DHT22;21757;43.610;1.440;2023-02-28T01:50:37;2.80;99.90
35635;DHT22;21757;43.610;1.440;2023-02-28T01:53:07;2.80;99.90
35635;DHT22;21757;43.610;1.440;2023-02-28T01:55:36;2.80;99.90
35635;DHT22;21757;43.610;1.440;2023-02-28T01:58:04;2.80;99.90
35635;DHT22;21757;43.610;1.440;2023-02-28T02:00:31;2.80;99.90
35635;DHT22;21757;43.610;1.440;2023-02-28T02:02:59;2.90;99.90
35635;DHT22;21757;43.610;1.440;2023-02-28T02:05:28;2.80;99.90
35635;DHT22;21757;43.610;1.440;2023-02-28T02:08:08;2.80;99.90
35635;DHT22;21757;43.610;1.440;2023-02-28T02:10:47;2.80;99.90
35635;DHT22;21757;43.610;1.440;2023-02-28T02:16:04;2.90;99.90
35635;DHT22;21757;43.610;1.440;2023-02-28T02:18:53;3.00;99.90
35635;DHT22;21757;43.610;1.440;2023-02-28T02:24:49;3.00;99.90
35635;DHT22;21757;43.610;1.440;2023-02-28T02:32:51;2.90;99.90
35635;DHT22;21757;43.610;1.440;2023-02-28T02:35:43;3.00;99.90
35635;DHT22;21757;43.610;1.440;2023-02-28T02:41:04;2.90;99.90
35635;DHT22;21757;43.610;1.440;2023-02-28T02:43:40;2.90;99.90
35635;DHT22;21757;43.610;1.440;2023-02-28T02:46:26;3.00;99.90
35635;DHT22;21757;43.610;1.440;2023-02-28T02:48:56;2.90;99.90
35635;DHT22;21757;43.610;1.440;2023-02-28T02:51:23;3.00;99.90
35635;DHT22;21757;43.610;1.440;2023-02-28T02:54:12;3.10;99.90
35635;DHT22;21757;43.610;1.440;2023-02-28T02:56:41;3.10;99.90
35635;DHT22;21757;43.610;1.440;2023-02-28T02:59:11;3.10;99.90
35635;DHT22;21757;43.610;1.440;2023-02-28T03:01:39;3.20;99.90
35635;DHT22;21757;43.610;1.440;2023-02-28T03:04:13;3.20;99.90
35635;DHT22;21757;43.610;1.440;2023-02-28T03:24:50;3.20;99.90
35635;DHT22;21757;43.610;1.440;2023-02-28T03:30:42;3.10;99.90
35635;DHT22;21757;43.610;1.440;2023-02-28T03:33:13;3.00;99.90
35635;DHT22;21757;43.610;1.440;2023-02-28T03:35:45;3.00;99.90
35635;DHT22;21757;43.610;1.440;2023-02-28T03:38:24;3.10;99.90
35635;DHT22;21757;43.610;1.440;2023-02-28T03:40:58;3.10;99.90
35635;DHT22;21757;43.610;1.440;2023-02-28T03:43:31;3.10;99.90
35635;DHT22;21757;43.610;1.440;2023-02-28T03:45:59;3.10;99.90
35635;DHT22;21757;43.610;1.440;2023-02-28T03:48:55;3.10;99.90
35635;DHT22;21757;43.610;1.440;2023-02-28T03:51:24;3.10;99.90
35635;DHT22;21757;43.610;1.440;2023-02-28T03:53:54;3.00;99.90
35635;DHT22;21757;43.610;1.440;2023-02-28T03:56:33;3.00;99.90
35635;DHT22;21757;43.610;1.440;2023-02-28T03:59:52;2.90;99.90
35635;DHT22;21757;43.610;1.440;2023-02-28T04:02:15;2.90;99.90
35635;DHT22;21757;43.610;1.440;2023-02-28T04:04:41;2.90;99.90
35635;DHT22;21757;43.610;1.440;2023-02-28T04:07:14;2.80;99.90
35635;DHT22;21757;43.610;1.440;2023-02-28T04:09:40;2.70;99.90
35635;DHT22;21757;43.610;1.440;2023-02-28T04:12:05;2.70;99.90
35635;DHT22;21757;43.610;1.440;2023-02-28T04:14:31;2.70;99.90
35635;DHT22;21757;43.610;1.440;2023-02-28T04:16:57;2.70;99.90
35635;DHT22;21757;43.610;1.440;2023-02-28T04:19:22;2.60;99.90
35635;DHT22;21757;43.610;1.440;2023-02-28T04:21:53;2.60;99.90
35635;DHT22;21757;43.610;1.440;2023-02-28T04:24:21;2.60;99.90
35635;DHT22;21757;43.610;1.440;2023-02-28T04:26:49;2.60;99.90
35635;DHT22;21757;43.610;1.440;2023-02-28T04:29:30;2.60;99.90
35635;DHT22;21757;43.610;1.440;2023-02-28T04:31:56;2.50;99.90
35635;DHT22;21757;43.610;1.440;2023-02-28T04:34:26;2.50;99.90
35635;DHT22;21757;43.610;1.440;2023-02-28T04:36:54;2.50;99.90
35635;DHT22;21757;43.610;1.440;2023-02-28T04:39:24;2.40;99.90
35635;DHT22;21757;43.610;1.440;2023-02-28T04:41:50;2.40;99.90
35635;DHT22;21757;43.610;1.440;2023-02-28T04:44:16;2.40;99.90
35635;DHT22;21757;43.610;1.440;2023-02-28T04:46:42;2.40;99.90
35635;DHT22;21757;43.610;1.440;2023-02-28T04:49:12;2.40;99.90
35635;DHT22;21757;43.610;1.440;2023-02-28T04:51:38;2.40;99.90
35635;DHT22;21757;43.610;1.440;2023-02-28T04:54:04;2.40;99.90
35635;DHT22;21757;43.610;1.440;2023-02-28T04:56:30;2.40;99.90
35635;DHT22;21757;43.610;1.440;2023-02-28T04:58:55;2.40;99.90
35635;DHT22;21757;43.610;1.440;2023-02-28T05:01:29;2.30;99.90
35635;DHT22;21757;43.610;1.440;2023-02-28T05:03:57;2.30;99.90
35635;DHT22;21757;43.610;1.440;2023-02-28T05:06:25;2.20;99.90
35635;DHT22;21757;43.610;1.440;2023-02-28T05:08:51;2.20;99.90
35635;DHT22;21757;43.610;1.440;2023-02-28T05:11:35;2.20;99.90
35635;DHT22;21757;43.610;1.440;2023-02-28T05:14:02;2.20;99.90
35635;DHT22;21757;43.610;1.440;2023-02-28T05:16:29;2.10;99.90
35635;DHT22;21757;43.610;1.440;2023-02-28T05:18:55;2.10;99.90
35635;DHT22;21757;43.610;1.440;2023-02-28T05:21:41;2.10;99.90
35635;DHT22;21757;43.610;1.440;2023-02-28T05:24:14;2.10;99.90
35635;DHT22;21757;43.610;1.440;2023-02-28T05:26:41;2.00;99.90
35635;DHT22;21757;43.610;1.440;2023-02-28T05:29:08;2.00;99.90
35635;DHT22;21757;43.610;1.440;2023-02-28T05:31:34;2.00;99.90
35635;DHT22;21757;43.610;1.440;2023-02-28T05:34:00;1.90;99.90
35635;DHT22;21757;43.610;1.440;2023-02-28T05:36:26;1.90;99.90
35635;DHT22;21757;43.610;1.440;2023-02-28T05:38:51;1.90;99.90
35635;DHT22;21757;43.610;1.440;2023-02-28T05:41:19;1.80;99.90
35635;DHT22;21757;43.610;1.440;2023-02-28T05:43:45;1.80;99.90
35635;DHT22;21757;43.610;1.440;2023-02-28T05:46:12;1.80;99.90
35635;DHT22;21757;43.610;1.440;2023-02-28T05:48:39;1.70;99.90
35635;DHT22;21757;43.610;1.440;2023-02-28T05:51:06;1.70;99.90
35635;DHT22;21757;43.610;1.440;2023-02-28T05:53:33;1.60;99.90
35635;DHT22;21757;43.610;1.440;2023-02-28T05:55:59;1.60;99.90
35635;DHT22;21757;43.610;1.440;2023-02-28T05:58:25;1.60;99.90
35635;DHT22;21757;43.610;1.440;2023-02-28T06:00:54;1.50;99.90
35635;DHT22;21757;43.610;1.440;2023-02-28T06:03:20;1.50;99.90
35635;DHT22;21757;43.610;1.440;2023-02-28T06:05:46;1.50;99.90
35635;DHT22;21757;43.610;1.440;2023-02-28T06:08:12;1.50;99.90
35635;DHT22;21757;43.610;1.440;2023-02-28T06:10:38;1.50;99.90
35635;DHT22;21757;43.610;1.440;2023-02-28T06:13:04;1.40;99.90
35635;DHT22;21757;43.610;1.440;2023-02-28T06:15:31;1.40;99.90
35635;DHT22;21757;43.610;1.440;2023-02-28T06:17:57;1.40;99.90
35635;DHT22;21757;43.610;1.440;2023-02-28T06:20:24;1.40;99.90
35635;DHT22;21757;43.610;1.440;2023-02-28T06:22:50;1.40;99.90
35635;DHT22;21757;43.610;1.440;2023-02-28T06:25:19;1.40;99.90
35635;DHT22;21757;43.610;1.440;2023-02-28T06:27:45;1.40;99.90
35635;DHT22;21757;43.610;1.440;2023-02-28T06:30:11;1.40;99.90
35635;DHT22;21757;43.610;1.440;2023-02-28T06:32:37;1.40;99.90
35635;DHT22;21757;43.610;1.440;2023-02-28T06:35:03;1.40;99.90
35635;DHT22;21757;43.610;1.440;2023-02-28T06:37:31;1.40;99.90
35635;DHT22;21757;43.610;1.440;2023-02-28T06:39:57;1.40;99.90
35635;DHT22;21757;43.610;1.440;2023-02-28T06:42:23;1.50;99.90
35635;DHT22;21757;43.610;1.440;2023-02-28T06:44:54;1.50;99.90
35635;DHT22;21757;43.610;1.440;2023-02-28T06:47:20;1.50;99.90
35635;DHT22;21757;43.610;1.440;2023-02-28T06:49:46;1.50;99.90
35635;DHT22;21757;43.610;1.440;2023-02-28T06:52:12;1.50;99.90
35635;DHT22;21757;43.610;1.440;2023-02-28T06:54:38;1.50;99.90
35635;DHT22;21757;43.610;1.440;2023-02-28T06:57:04;1.50;99.90
35635;DHT22;21757;43.610;1.440;2023-02-28T06:59:30;1.50;99.90
35635;DHT22;21757;43.610;1.440;2023-02-28T07:01:55;1.50;99.90
35635;DHT22;21757;43.610;1.440;2023-02-28T07:04:22;1.50;99.90
35635;DHT22;21757;43.610;1.440;2023-02-28T07:06:47;1.50;99.90
35635;DHT22;21757;43.610;1.440;2023-02-28T07:09:13;1.60;99.90
35635;DHT22;21757;43.610;1.440;2023-02-28T07:11:40;1.60;99.90
35635;DHT22;21757;43.610;1.440;2023-02-28T07:14:06;1.60;99.90
35635;DHT22;21757;43.610;1.440;2023-02-28T07:16:32;1.70;99.90
35635;DHT22;21757;43.610;1.440;2023-02-28T07:18:58;1.70;99.90
35635;DHT22;21757;43.610;1.440;2023-02-28T07:21:24;1.70;99.90
35635;DHT22;21757;43.610;1.440;2023-02-28T07:23:50;1.70;99.90
35635;DHT22;21757;43.610;1.440;2023-02-28T07:26:18;1.70;99.90
35635;DHT22;21757;43.610;1.440;2023-02-28T07:28:45;1.80;99.90
35635;DHT22;21757;43.610;1.440;2023-02-28T07:31:12;1.80;99.90
35635;DHT22;21757;43.610;1.440;2023-02-28T07:33:39;1.90;99.90
35635;DHT22;21757;43.610;1.440;2023-02-28T07:36:11;2.00;99.90
35635;DHT22;21757;43.610;1.440;2023-02-28T07:38:41;2.10;99.90
35635;DHT22;21757;43.610;1.440;2023-02-28T07:41:08;2.10;99.90
35635;DHT22;21757;43.610;1.440;2023-02-28T07:43:35;2.30;99.90
35635;DHT22;21757;43.610;1.440;2023-02-28T07:46:03;2.30;99.90
35635;DHT22;21757;43.610;1.440;2023-02-28T07:48:28;2.50;99.90
35635;DHT22;21757;43.610;1.440;2023-02-28T07:50:55;2.50;99.90
35635;DHT22;21757;43.610;1.440;2023-02-28T07:53:22;2.60;99.90
35635;DHT22;21757;43.610;1.440;2023-02-28T07:55:48;2.60;99.90
35635;DHT22;21757;43.610;1.440;2023-02-28T07:58:14;2.60;99.90
35635;DHT22;21757;43.610;1.440;2023-02-28T08:00:40;2.50;99.90
35635;DHT22;21757;43.610;1.440;2023-02-28T08:03:05;2.60;99.90
35635;DHT22;21757;43.610;1.440;2023-02-28T08:05:31;2.80;99.90
35635;DHT22;21757;43.610;1.440;2023-02-28T08:07:59;2.90;99.90
35635;DHT22;21757;43.610;1.440;2023-02-28T08:10:24;2.90;99.90
35635;DHT22;21757;43.610;1.440;2023-02-28T08:12:50;2.80;99.90
35635;DHT22;21757;43.610;1.440;2023-02-28T08:15:16;2.90;99.90
35635;DHT22;21757;43.610;1.440;2023-02-28T08:17:41;3.00;99.90
35635;DHT22;21757;43.610;1.440;2023-02-28T08:20:07;3.10;99.90
35635;DHT22;21757;43.610;1.440;2023-02-28T08:22:34;3.30;99.90
35635;DHT22;21757;43.610;1.440;2023-02-28T08:25:00;3.50;99.90
35635;DHT22;21757;43.610;1.440;2023-02-28T08:27:25;3.60;99.90
35635;DHT22;21757;43.610;1.440;2023-02-28T08:29:51;3.80;99.90
35635;DHT22;21757;43.610;1.440;2023-02-28T08:32:17;4.10;99.90
35635;DHT22;21757;43.610;1.440;2023-02-28T08:34:42;4.30;99.90
35635;DHT22;21757;43.610;1.440;2023-02-28T08:37:08;4.50;99.90
35635;DHT22;21757;43.610;1.440;2023-02-28T08:39:35;4.40;99.90
35635;DHT22;21757;43.610;1.440;2023-02-28T08:42:02;4.70;99.90
35635;DHT22;21757;43.610;1.440;2023-02-28T08:44:28;4.50;99.90
35635;DHT22;21757;43.610;1.440;2023-02-28T08:46:54;4.50;99.90
35635;DHT22;21757;43.610;1.440;2023-02-28T08:49:19;4.10;99.90
35635;DHT22;21757;43.610;1.440;2023-02-28T08:51:46;4.30;99.90
35635;DHT22;21757;43.610;1.440;2023-02-28T08:54:12;4.50;99.90
35635;DHT22;21757;43.610;1.440;2023-02-28T08:56:38;4.50;99.90
35635;DHT22;21757;43.610;1.440;2023-02-28T08:59:05;4.60;99.90
35635;DHT22;21757;43.610;1.440;2023-02-28T09:01:30;4.50;99.90
35635;DHT22;21757;43.610;1.440;2023-02-28T09:03:57;4.40;99.90
35635;DHT22;21757;43.610;1.440;2023-02-28T09:06:25;4.30;99.90
35635;DHT22;21757;43.610;1.440;2023-02-28T09:08:52;4.20;99.90
35635;DHT22;21757;43.610;1.440;2023-02-28T09:11:18;4.20;99.90
35635;DHT22;21757;43.610;1.440;2023-02-28T09:13:45;4.00;99.90
35635;DHT22;21757;43.610;1.440;2023-02-28T09:16:13;3.90;99.90
35635;DHT22;21757;43.610;1.440;2023-02-28T09:18:39;3.90;99.90
35635;DHT22;21757;43.610;1.440;2023-02-28T09:21:11;3.90;99.90
35635;DHT22;21757;43.610;1.440;2023-02-28T09:23:40;3.80;99.90
35635;DHT22;21757;43.610;1.440;2023-02-28T09:26:07;3.90;99.90
35635;DHT22;21757;43.610;1.440;2023-02-28T09:28:33;3.90;99.90
35635;DHT22;21757;43.610;1.440;2023-02-28T09:30:59;3.90;99.90
35635;DHT22;21757;43.610;1.440;2023-02-28T09:33:26;3.80;99.90
35635;DHT22;21757;43.610;1.440;2023-02-28T09:35:58;4.00;99.90
35635;DHT22;21757;43.610;1.440;2023-02-28T09:38:25;3.90;99.90
35635;DHT22;21757;43.610;1.440;2023-02-28T09:40:58;3.90;99.90
35635;DHT22;21757;43.610;1.440;2023-02-28T09:43:27;4.00;99.90
35635;DHT22;21757;43.610;1.440;2023-02-28T09:46:04;4.20;99.90
35635;DHT22;21757;43.610;1.440;2023-02-28T09:48:35;4.40;99.90
35635;DHT22;21757;43.610;1.440;2023-02-28T09:53:37;4.50;99.90
35635;DHT22;21757;43.610;1.440;2023-02-28T09:56:10;4.60;99.90
35635;DHT22;21757;43.610;1.440;2023-02-28T10:01:21;4.50;99.90
35635;DHT22;21757;43.610;1.440;2023-02-28T10:06:20;4.80;99.90
35635;DHT22;21757;43.610;1.440;2023-02-28T10:08:57;4.90;99.90
35635;DHT22;21757;43.610;1.440;2023-02-28T10:11:24;4.90;99.90
35635;DHT22;21757;43.610;1.440;2023-02-28T10:14:02;5.10;99.90
35635;DHT22;21757;43.610;1.440;2023-02-28T10:16:37;5.00;99.90
35635;DHT22;21757;43.610;1.440;2023-02-28T10:21:41;5.00;99.90
35635;DHT22;21757;43.610;1.440;2023-02-28T10:24:39;4.80;99.90
35635;DHT22;21757;43.610;1.440;2023-02-28T10:27:18;4.70;99.90
35635;DHT22;21757;43.610;1.440;2023-02-28T10:29:50;4.70;99.90
35635;DHT22;21757;43.610;1.440;2023-02-28T10:32:17;4.70;99.90
35635;DHT22;21757;43.610;1.440;2023-02-28T10:34:43;4.70;99.90
35635;DHT22;21757;43.610;1.440;2023-02-28T10:37:11;4.70;99.90
35635;DHT22;21757;43.610;1.440;2023-02-28T10:39:44;4.80;99.90
35635;DHT22;21757;43.610;1.440;2023-02-28T10:42:23;5.00;99.90
35635;DHT22;21757;43.610;1.440;2023-02-28T10:45:14;5.10;99.90
35635;DHT22;21757;43.610;1.440;2023-02-28T10:47:59;5.40;99.90
35635;DHT22;21757;43.610;1.440;2023-02-28T10:56:20;5.80;99.90
35635;DHT22;21757;43.610;1.440;2023-02-28T10:58:56;5.60;99.90
35635;DHT22;21757;43.610;1.440;2023-02-28T11:04:16;5.40;99.90
35635;DHT22;21757;43.610;1.440;2023-02-28T11:06:42;5.00;99.90
35635;DHT22;21757;43.610;1.440;2023-02-28T11:09:34;5.10;99.90
35635;DHT22;21757;43.610;1.440;2023-02-28T11:12:05;4.90;99.90
35635;DHT22;21757;43.610;1.440;2023-02-28T11:14:36;4.90;99.90
35635;DHT22;21757;43.610;1.440;2023-02-28T11:17:14;5.20;99.90
35635;DHT22;21757;43.610;1.440;2023-02-28T11:19:49;5.30;99.90
35635;DHT22;21757;43.610;1.440;2023-02-28T11:22:19;5.30;99.90
35635;DHT22;21757;43.610;1.440;2023-02-28T11:24:49;5.50;99.90
35635;DHT22;21757;43.610;1.440;2023-02-28T11:29:52;5.50;99.90
35635;DHT22;21757;43.610;1.440;2023-02-28T11:32:23;5.60;99.90
35635;DHT22;21757;43.610;1.440;2023-02-28T11:37:39;6.00;99.90
35635;DHT22;21757;43.610;1.440;2023-02-28T11:40:38;6.20;99.90
35635;DHT22;21757;43.610;1.440;2023-02-28T11:45:45;6.00;99.90
35635;DHT22;21757;43.610;1.440;2023-02-28T11:48:47;6.00;99.90
35635;DHT22;21757;43.610;1.440;2023-02-28T11:51:59;6.30;99.90
35635;DHT22;21757;43.610;1.440;2023-02-28T11:57:27;6.40;99.90
35635;DHT22;21757;43.610;1.440;2023-02-28T12:05:58;6.50;99.90
35635;DHT22;21757;43.610;1.440;2023-02-28T12:28:58;7.20;99.90
35635;DHT22;21757;43.610;1.440;2023-02-28T12:31:32;7.00;99.90
35635;DHT22;21757;43.610;1.440;2023-02-28T12:34:04;7.20;99.90
35635;DHT22;21757;43.610;1.440;2023-02-28T12:36:31;7.30;99.90
35635;DHT22;21757;43.610;1.440;2023-02-28T12:39:12;7.10;99.90
35635;DHT22;21757;43.610;1.440;2023-02-28T12:41:51;7.20;99.90
35635;DHT22;21757;43.610;1.440;2023-02-28T12:44:39;7.40;99.90
35635;DHT22;21757;43.610;1.440;2023-02-28T12:47:14;7.50;99.90
35635;DHT22;21757;43.610;1.440;2023-02-28T12:49:48;7.30;99.90
35635;DHT22;21757;43.610;1.440;2023-02-28T12:52:18;7.00;99.90
35635;DHT22;21757;43.610;1.440;2023-02-28T12:55:12;6.90;99.90
35635;DHT22;21757;43.610;1.440;2023-02-28T12:58:38;6.90;99.90
35635;DHT22;21757;43.610;1.440;2023-02-28T13:00:47;6.90;99.90
35635;DHT22;21757;43.610;1.440;2023-02-28T13:03:51;6.80;99.90
35635;DHT22;21757;43.610;1.440;2023-02-28T13:09:14;7.30;99.90
35635;DHT22;21757;43.610;1.440;2023-02-28T13:11:49;7.40;99.90
35635;DHT22;21757;43.610;1.440;2023-02-28T13:17:11;7.30;99.90
35635;DHT22;21757;43.610;1.440;2023-02-28T13:19:44;7.40;99.90
35635;DHT22;21757;43.610;1.440;2023-02-28T13:22:36;7.40;99.90
35635;DHT22;21757;43.610;1.440;2023-02-28T13:27:53;7.30;99.90
35635;DHT22;21757;43.610;1.440;2023-02-28T13:35:46;6.80;99.90
35635;DHT22;21757;43.610;1.440;2023-02-28T13:38:17;6.70;99.90
35635;DHT22;21757;43.610;1.440;2023-02-28T13:40:46;6.70;99.90
35635;DHT22;21757;43.610;1.440;2023-02-28T13:43:16;7.10;99.90
35635;DHT22;21757;43.610;1.440;2023-02-28T13:46:06;7.20;99.90
35635;DHT22;21757;43.610;1.440;2023-02-28T13:48:34;7.10;99.90
35635;DHT22;21757;43.610;1.440;2023-02-28T13:50:59;6.90;99.90
35635;DHT22;21757;43.610;1.440;2023-02-28T13:56:33;7.40;99.90
35635;DHT22;21757;43.610;1.440;2023-02-28T13:59:34;7.40;99.90
35635;DHT22;21757;43.610;1.440;2023-02-28T14:02:29;7.40;99.90
35635;DHT22;21757;43.610;1.440;2023-02-28T14:07:26;7.50;99.90
35635;DHT22;21757;43.610;1.440;2023-02-28T14:10:08;7.70;99.90
35635;DHT22;21757;43.610;1.440;2023-02-28T14:12:55;7.60;99.90
35635;DHT22;21757;43.610;1.440;2023-02-28T14:18:05;7.30;99.90
35635;DHT22;21757;43.610;1.440;2023-02-28T14:20:36;7.50;99.90
35635;DHT22;21757;43.610;1.440;2023-02-28T14:23:12;7.50;99.90
35635;DHT22;21757;43.610;1.440;2023-02-28T14:26:25;7.10;99.90
35635;DHT22;21757;43.610;1.440;2023-02-28T14:36:36;6.70;99.90
35635;DHT22;21757;43.610;1.440;2023-02-28T14:39:12;6.70;99.90
35635;DHT22;21757;43.610;1.440;2023-02-28T14:41:41;6.70;99.90
35635;DHT22;21757;43.610;1.440;2023-02-28T14:44:33;6.80;99.90
35635;DHT22;21757;43.610;1.440;2023-02-28T14:47:02;6.60;99.90
35635;DHT22;21757;43.610;1.440;2023-02-28T14:49:42;6.70;99.90
35635;DHT22;21757;43.610;1.440;2023-02-28T14:52:20;6.80;99.90
35635;DHT22;21757;43.610;1.440;2023-02-28T14:54:53;7.00;99.90
35635;DHT22;21757;43.610;1.440;2023-02-28T14:57:29;6.70;99.90
35635;DHT22;21757;43.610;1.440;2023-02-28T15:00:13;6.80;99.90
35635;DHT22;21757;43.610;1.440;2023-02-28T15:02:40;6.60;99.90
35635;DHT22;21757;43.610;1.440;2023-02-28T15:07:44;6.90;99.90
35635;DHT22;21757;43.610;1.440;2023-02-28T15:10:43;7.00;99.90
35635;DHT22;21757;43.610;1.440;2023-02-28T15:13:05;6.60;99.90
35635;DHT22;21757;43.610;1.440;2023-02-28T15:15:58;6.30;99.90
35635;DHT22;21757;43.610;1.440;2023-02-28T15:18:41;6.50;99.90
35635;DHT22;21757;43.610;1.440;2023-02-28T15:21:29;6.70;99.90
35635;DHT22;21757;43.610;1.440;2023-02-28T15:24:10;6.60;99.90
35635;DHT22;21757;43.610;1.440;2023-02-28T15:26:44;6.90;99.90
35635;DHT22;21757;43.610;1.440;2023-02-28T15:29:19;6.70;99.90
35635;DHT22;21757;43.610;1.440;2023-02-28T15:31:55;6.60;99.90
35635;DHT22;21757;43.610;1.440;2023-02-28T15:34:37;6.60;99.90
35635;DHT22;21757;43.610;1.440;2023-02-28T15:37:26;6.40;99.90
35635;DHT22;21757;43.610;1.440;2023-02-28T15:39:53;6.40;99.90
35635;DHT22;21757;43.610;1.440;2023-02-28T15:42:22;6.30;99.90
35635;DHT22;21757;43.610;1.440;2023-02-28T15:44:48;6.40;99.90
35635;DHT22;21757;43.610;1.440;2023-02-28T15:47:26;6.30;99.90
35635;DHT22;21757;43.610;1.440;2023-02-28T15:49:59;6.40;99.90
35635;DHT22;21757;43.610;1.440;2023-02-28T15:55:27;6.30;99.90
35635;DHT22;21757;43.610;1.440;2023-02-28T15:57:56;6.40;99.90
35635;DHT22;21757;43.610;1.440;2023-02-28T16:00:26;6.40;99.90
35635;DHT22;21757;43.610;1.440;2023-02-28T16:02:52;6.30;99.90
35635;DHT22;21757;43.610;1.440;2023-02-28T16:05:36;6.50;99.90
35635;DHT22;21757;43.610;1.440;2023-02-28T16:08:14;6.50;99.90
35635;DHT22;21757;43.610;1.440;2023-02-28T16:10:40;6.40;99.90
35635;DHT22;21757;43.610;1.440;2023-02-28T16:13:08;6.30;99.90
35635;DHT22;21757;43.610;1.440;2023-02-28T16:15:38;6.20;99.90
35635;DHT22;21757;43.610;1.440;2023-02-28T16:18:10;6.10;99.90
35635;DHT22;21757;43.610;1.440;2023-02-28T16:20:36;6.10;99.90
35635;DHT22;21757;43.610;1.440;2023-02-28T16:23:02;6.00;99.90
35635;DHT22;21757;43.610;1.440;2023-02-28T16:25:42;5.90;99.90
35635;DHT22;21757;43.610;1.440;2023-02-28T16:28:21;5.90;99.90
35635;DHT22;21757;43.610;1.440;2023-02-28T16:30:51;5.80;99.90
35635;DHT22;21757;43.610;1.440;2023-02-28T16:33:17;5.70;99.90
35635;DHT22;21757;43.610;1.440;2023-02-28T16:35:43;5.80;99.90
35635;DHT22;21757;43.610;1.440;2023-02-28T16:38:09;5.80;99.90
35635;DHT22;21757;43.610;1.440;2023-02-28T16:40:36;5.90;99.90
35635;DHT22;21757;43.610;1.440;2023-02-28T16:43:05;5.70;99.90
35635;DHT22;21757;43.610;1.440;2023-02-28T16:45:33;5.60;99.90
35635;DHT22;21757;43.610;1.440;2023-02-28T16:47:59;5.60;99.90
35635;DHT22;21757;43.610;1.440;2023-02-28T16:50:28;5.70;99.90
35635;DHT22;21757;43.610;1.440;2023-02-28T16:52:54;5.60;99.90
35635;DHT22;21757;43.610;1.440;2023-02-28T16:55:22;5.60;99.90
35635;DHT22;21757;43.610;1.440;2023-02-28T16:57:55;5.60;99.90
35635;DHT22;21757;43.610;1.440;2023-02-28T17:00:22;5.60;99.90
35635;DHT22;21757;43.610;1.440;2023-02-28T17:02:50;5.60;99.90
35635;DHT22;21757;43.610;1.440;2023-02-28T17:05:17;5.50;99.90
35635;DHT22;21757;43.610;1.440;2023-02-28T17:07:44;5.60;99.90
35635;DHT22;21757;43.610;1.440;2023-02-28T17:10:20;5.60;99.90
35635;DHT22;21757;43.610;1.440;2023-02-28T17:12:45;5.60;99.90
35635;DHT22;21757;43.610;1.440;2023-02-28T17:15:12;5.50;99.90
35635;DHT22;21757;43.610;1.440;2023-02-28T17:17:39;5.40;99.90
35635;DHT22;21757;43.610;1.440;2023-02-28T17:20:11;5.40;99.90
35635;DHT22;21757;43.610;1.440;2023-02-28T17:22:37;5.30;99.90
35635;DHT22;21757;43.610;1.440;2023-02-28T17:25:03;5.30;99.90
35635;DHT22;21757;43.610;1.440;2023-02-28T17:27:29;5.40;99.90
35635;DHT22;21757;43.610;1.440;2023-02-28T17:29:54;5.30;99.90
35635;DHT22;21757;43.610;1.440;2023-02-28T17:32:20;5.30;99.90
35635;DHT22;21757;43.610;1.440;2023-02-28T17:34:46;5.20;99.90
35635;DHT22;21757;43.610;1.440;2023-02-28T17:37:12;5.30;99.90
35635;DHT22;21757;43.610;1.440;2023-02-28T17:39:37;5.30;99.90
35635;DHT22;21757;43.610;1.440;2023-02-28T17:42:03;5.30;99.90
35635;DHT22;21757;43.610;1.440;2023-02-28T17:44:29;5.30;99.90
35635;DHT22;21757;43.610;1.440;2023-02-28T17:46:56;5.20;99.90
35635;DHT22;21757;43.610;1.440;2023-02-28T17:49:22;5.20;99.90
35635;DHT22;21757;43.610;1.440;2023-02-28T17:51:48;5.20;99.90
35635;DHT22;21757;43.610;1.440;2023-02-28T17:54:14;5.30;99.90
35635;DHT22;21757;43.610;1.440;2023-02-28T17:56:41;5.30;99.90
35635;DHT22;21757;43.610;1.440;2023-02-28T17:59:09;5.20;99.90
35635;DHT22;21757;43.610;1.440;2023-02-28T18:01:35;5.20;99.90
35635;DHT22;21757;43.610;1.440;2023-02-28T18:04:01;5.20;99.90
35635;DHT22;21757;43.610;1.440;2023-02-28T18:06:38;5.20;99.90
35635;DHT22;21757;43.610;1.440;2023-02-28T18:09:17;5.20;99.90
35635;DHT22;21757;43.610;1.440;2023-02-28T18:11:43;5.20;99.90
35635;DHT22;21757;43.610;1.440;2023-02-28T18:14:14;5.10;99.90